createdAt,value
2023-05-01T00:01:44.589Z,100826.23
2023-05-01T00:04:15.708Z,100825.67
2023-05-01T00:06:46.678Z,100825.16
2023-05-01T00:09:18.440Z,100824.69
2023-05-01T00:11:49.068Z,100820.33
2023-05-01T00:14:19.806Z,100824.00
2023-05-01T00:16:50.854Z,100826.61
2023-05-01T00:19:21.729Z,100825.10
2023-05-01T00:21:53.157Z,100825.23
2023-05-01T00:24:24.210Z,100823.19
2023-05-01T00:26:54.840Z,100820.44
2023-05-01T00:29:25.483Z,100818.88
2023-05-01T00:31:56.858Z,100817.09
2023-05-01T00:34:27.745Z,100814.88
2023-05-01T00:36:58.878Z,100813.92
2023-05-01T00:39:29.600Z,100815.58
2023-05-01T00:42:00.418Z,100822.60
2023-05-01T00:44:31.385Z,100814.16
2023-05-01T00:47:02.441Z,100810.15
2023-05-01T00:49:33.048Z,100812.04
2023-05-01T00:52:03.780Z,100812.53
2023-05-01T00:54:34.707Z,100810.92
2023-05-01T00:57:06.879Z,100809.70
2023-05-01T00:59:39.500Z,100808.64
2023-05-01T01:02:11.995Z,100810.73
2023-05-01T01:04:44.037Z,100808.55
2023-05-01T01:07:21.834Z,100808.13
2023-05-01T01:10:05.347Z,100802.26
2023-05-01T01:12:48.037Z,100794.83
2023-05-01T01:15:25.379Z,100792.66
2023-05-01T01:18:05.326Z,100793.39
2023-05-01T01:20:42.410Z,100794.30
2023-05-01T01:23:35.809Z,100790.86
2023-05-01T01:26:23.000Z,100791.13
2023-05-01T01:29:22.911Z,100787.95
2023-05-01T01:32:05.688Z,100783.96
2023-05-01T01:34:41.805Z,100783.40
2023-05-01T01:37:18.675Z,100780.89
2023-05-01T01:39:54.832Z,100779.59
2023-05-01T01:42:37.934Z,100773.78
2023-05-01T01:45:16.532Z,100773.35
2023-05-01T01:47:49.450Z,100765.64
2023-05-01T01:50:23.722Z,100767.55
2023-05-01T01:52:55.588Z,100767.92
2023-05-01T01:55:31.457Z,100767.41
2023-05-01T01:58:04.074Z,100766.65
2023-05-01T02:00:36.808Z,100764.85
2023-05-01T02:03:06.789Z,100761.39
2023-05-01T02:05:39.977Z,100757.86
2023-05-01T02:08:12.640Z,100752.00
2023-05-01T02:10:45.310Z,100747.42
2023-05-01T02:13:17.431Z,100746.88
2023-05-01T02:15:49.347Z,100746.25
2023-05-01T02:18:21.886Z,100744.36
2023-05-01T02:20:54.208Z,100745.00
2023-05-01T02:23:26.180Z,100739.31
2023-05-01T02:26:00.429Z,100743.40
2023-05-01T02:28:33.252Z,100746.86
2023-05-01T02:31:02.334Z,100741.88
2023-05-01T02:33:33.034Z,100742.90
2023-05-01T02:36:05.232Z,100743.70
2023-05-01T02:38:35.420Z,100740.32
2023-05-01T02:41:07.666Z,100736.13
2023-05-01T02:43:39.846Z,100735.83
2023-05-01T02:46:11.504Z,100730.61
2023-05-01T02:48:43.525Z,100732.67
2023-05-01T02:51:15.793Z,100732.33
2023-05-01T02:53:47.052Z,100731.89
2023-05-01T02:56:21.982Z,100733.59
2023-05-01T02:58:53.366Z,100728.67
2023-05-01T03:01:24.842Z,100724.61
2023-05-01T03:03:55.674Z,100721.17
2023-05-01T03:06:29.176Z,100722.58
2023-05-01T03:08:59.983Z,100718.03
2023-05-01T03:11:30.687Z,100714.56
2023-05-01T03:14:01.438Z,100713.49
2023-05-01T03:16:32.404Z,100692.83
2023-05-01T03:19:03.294Z,100710.07
2023-05-01T03:21:34.459Z,100702.80
2023-05-01T03:24:05.354Z,100705.05
2023-05-01T03:26:36.166Z,100698.52
2023-05-01T03:29:06.836Z,100699.66
2023-05-01T03:31:38.315Z,100705.40
2023-05-01T03:34:10.581Z,100707.13
2023-05-01T03:36:41.362Z,100704.27
2023-05-01T03:39:12.558Z,100706.77
2023-05-01T03:42:18.765Z,100701.48
2023-05-01T03:44:50.096Z,100697.58
2023-05-01T03:47:21.409Z,100697.31
2023-05-01T03:49:52.069Z,100691.61
2023-05-01T03:52:22.843Z,100694.31
2023-05-01T03:54:54.369Z,100691.02
2023-05-01T03:57:28.865Z,100690.10
2023-05-01T04:00:01.294Z,100690.88
2023-05-01T04:02:34.330Z,100690.15
2023-05-01T04:05:05.566Z,100691.42
2023-05-01T04:07:36.761Z,100687.20
2023-05-01T04:10:09.877Z,100687.10
2023-05-01T04:12:42.837Z,100684.38
2023-05-01T04:15:15.558Z,100683.23
2023-05-01T04:17:47.021Z,100681.74
2023-05-01T04:20:19.391Z,100681.07
2023-05-01T04:22:52.012Z,100676.70
2023-05-01T04:25:23.192Z,100674.69
2023-05-01T04:27:55.426Z,100671.16
2023-05-01T04:30:26.115Z,100663.45
2023-05-01T04:32:57.581Z,100657.59
2023-05-01T04:35:28.633Z,100661.45
2023-05-01T04:37:59.598Z,100657.16
2023-05-01T04:40:30.357Z,100657.23
2023-05-01T04:43:02.494Z,100654.48
2023-05-01T04:45:33.552Z,100650.52
2023-05-01T04:48:04.267Z,100645.60
2023-05-01T04:50:35.053Z,100650.23
2023-05-01T04:53:05.850Z,100651.36
2023-05-01T04:55:36.838Z,100651.54
2023-05-01T04:58:15.082Z,100643.66
2023-05-01T05:00:46.671Z,100650.98
2023-05-01T05:03:23.377Z,100651.33
2023-05-01T05:05:54.147Z,100646.08
2023-05-01T05:08:25.185Z,100642.89
2023-05-01T05:11:01.733Z,100642.76
2023-05-01T05:13:49.896Z,100640.95
2023-05-01T05:16:20.754Z,100637.76
2023-05-01T05:18:51.462Z,100635.14
2023-05-01T05:21:22.343Z,100632.92
2023-05-01T05:23:56.322Z,100631.65
2023-05-01T05:26:27.222Z,100632.08
2023-05-01T05:28:59.431Z,100632.02
2023-05-01T05:31:30.051Z,100631.57
2023-05-01T05:34:00.787Z,100631.08
2023-05-01T05:36:31.532Z,100623.67
2023-05-01T05:39:03.565Z,100624.62
2023-05-01T05:41:32.981Z,100621.55
2023-05-01T05:44:04.688Z,100620.21
2023-05-01T05:46:35.573Z,100616.02
2023-05-01T05:49:06.533Z,100613.77
2023-05-01T05:51:37.306Z,100610.08
2023-05-01T05:54:08.813Z,100601.98
2023-05-01T05:56:39.963Z,100598.50
2023-05-01T05:59:10.809Z,100600.09
2023-05-01T06:01:42.716Z,100598.19
2023-05-01T06:04:14.991Z,100604.48
2023-05-01T06:06:46.134Z,100599.97
2023-05-01T06:09:19.120Z,100597.35
2023-05-01T06:11:48.957Z,100597.13
2023-05-01T06:14:20.123Z,100589.44
2023-05-01T06:16:50.911Z,100582.95
2023-05-01T06:19:21.692Z,100580.17
2023-05-01T06:21:55.420Z,100581.58
2023-05-01T06:24:27.425Z,100574.06
2023-05-01T06:27:01.706Z,100576.77
2023-05-01T06:29:32.659Z,100573.64
2023-05-01T06:32:04.228Z,100571.13
2023-05-01T06:34:35.194Z,100567.48
2023-05-01T06:37:07.747Z,100568.55
2023-05-01T06:39:38.451Z,100565.94
2023-05-01T06:42:11.884Z,100562.34
2023-05-01T06:44:43.414Z,100558.89
2023-05-01T06:47:14.394Z,100564.01
2023-05-01T06:49:45.378Z,100562.52
2023-05-01T06:52:15.989Z,100558.88
2023-05-01T06:54:46.751Z,100556.11
2023-05-01T06:57:17.692Z,100550.84
2023-05-01T06:59:48.922Z,100543.82
2023-05-01T07:02:19.619Z,100538.63
2023-05-01T07:04:50.368Z,100541.77
2023-05-01T07:07:21.943Z,100543.04
2023-05-01T07:09:52.763Z,100537.49
2023-05-01T07:12:23.768Z,100530.68
2023-05-01T07:14:54.645Z,100532.88
2023-05-01T07:17:25.457Z,100530.83
2023-05-01T07:19:56.300Z,100523.11
2023-05-01T07:22:28.940Z,100525.50
2023-05-01T07:25:01.206Z,100520.59
2023-05-01T07:27:32.000Z,100518.60
2023-05-01T07:30:02.773Z,100517.25
2023-05-01T07:32:33.808Z,100514.67
2023-05-01T07:35:05.163Z,100512.91
2023-05-01T07:37:35.852Z,100513.92
2023-05-01T07:40:08.469Z,100510.58
2023-05-01T07:42:39.123Z,100508.45
2023-05-01T07:45:11.876Z,100510.04
2023-05-01T07:47:42.955Z,100505.05
2023-05-01T07:50:14.478Z,100499.59
2023-05-01T07:52:45.490Z,100500.91
2023-05-01T07:55:19.207Z,100500.00
2023-05-01T07:57:49.963Z,100497.72
2023-05-01T08:00:22.172Z,100498.30
2023-05-01T08:02:54.292Z,100495.75
2023-05-01T08:05:25.111Z,100495.42
2023-05-01T08:07:55.841Z,100491.23
2023-05-01T08:10:27.420Z,100493.04
2023-05-01T08:12:58.173Z,100487.95
2023-05-01T08:15:28.884Z,100487.59
2023-05-01T08:17:59.627Z,100493.42
2023-05-01T08:20:30.650Z,100485.56
2023-05-01T08:23:01.248Z,100481.95
2023-05-01T08:25:32.420Z,100484.55
2023-05-01T08:28:03.436Z,100489.86
2023-05-01T08:30:34.048Z,100484.19
2023-05-01T08:33:04.992Z,100487.55
2023-05-01T08:35:35.868Z,100483.77
2023-05-01T08:38:06.472Z,100487.25
2023-05-01T08:40:40.313Z,100490.36
2023-05-01T08:43:13.219Z,100481.21
2023-05-01T08:45:45.655Z,100485.91
2023-05-01T08:48:19.394Z,100483.61
2023-05-01T08:50:50.755Z,100483.16
2023-05-01T08:53:23.199Z,100485.40
2023-05-01T08:55:55.108Z,100482.81
2023-05-01T08:58:28.088Z,100487.54
2023-05-01T09:01:01.260Z,100479.06
2023-05-01T09:03:34.579Z,100471.80
2023-05-01T09:06:06.003Z,100474.77
2023-05-01T09:08:36.677Z,100471.59
2023-05-01T09:11:07.719Z,100461.95
2023-05-01T09:13:38.845Z,100460.58
2023-05-01T09:16:09.966Z,100466.59
2023-05-01T09:18:42.140Z,100460.40
2023-05-01T09:21:12.339Z,100452.55
2023-05-01T09:23:41.645Z,100449.17
2023-05-01T09:26:12.575Z,100448.39
2023-05-01T09:28:44.859Z,100447.75
2023-05-01T09:31:28.604Z,100445.02
2023-05-01T09:34:01.606Z,100444.74
2023-05-01T09:36:34.117Z,100434.08
2023-05-01T09:39:05.153Z,100434.23
2023-05-01T09:41:36.701Z,100424.92
2023-05-01T09:44:19.226Z,100421.10
2023-05-01T09:46:50.860Z,100423.70
2023-05-01T09:49:21.641Z,100414.52
2023-05-01T09:51:52.368Z,100421.69
2023-05-01T09:54:23.292Z,100418.58
2023-05-01T09:56:53.849Z,100407.47
2023-05-01T09:59:25.241Z,100407.70
2023-05-01T10:01:56.417Z,100403.09
2023-05-01T10:04:34.079Z,100393.45
2023-05-01T10:07:14.344Z,100396.47
2023-05-01T10:09:45.109Z,100397.56
2023-05-01T10:12:26.306Z,100392.20
2023-05-01T10:14:58.621Z,100390.06
2023-05-01T10:17:31.175Z,100378.63
2023-05-01T10:20:01.947Z,100377.61
2023-05-01T10:22:32.697Z,100373.61
2023-05-01T10:25:04.536Z,100371.83
2023-05-01T10:27:36.248Z,100379.71
2023-05-01T10:30:09.153Z,100367.94
2023-05-01T10:32:42.074Z,100368.91
2023-05-01T10:35:16.223Z,100358.73
2023-05-01T10:37:50.814Z,100358.30
2023-05-01T10:40:49.959Z,100355.85
2023-05-01T10:43:26.014Z,100354.25
2023-05-01T10:46:19.255Z,100352.13
2023-05-01T10:49:02.573Z,100346.92
2023-05-01T10:51:33.415Z,100337.55
2023-05-01T10:54:28.245Z,100333.84
2023-05-01T10:57:01.384Z,100328.27
2023-05-01T11:00:09.413Z,100320.63
2023-05-01T11:02:40.122Z,100315.27
2023-05-01T11:05:11.277Z,100322.25
2023-05-01T11:07:42.277Z,100319.14
2023-05-01T11:13:10.807Z,100303.57
2023-05-01T11:15:41.568Z,100304.31
2023-05-01T11:18:13.597Z,100299.30
2023-05-01T11:20:52.120Z,100297.63
2023-05-01T11:23:27.486Z,100288.79
2023-05-01T11:26:08.102Z,100278.20
2023-05-01T11:28:42.430Z,100281.64
2023-05-01T11:31:17.994Z,100277.90
2023-05-01T11:33:48.994Z,100275.80
2023-05-01T11:36:19.894Z,100271.67
2023-05-01T11:38:56.745Z,100267.11
2023-05-01T11:41:28.072Z,100266.69
2023-05-01T11:44:00.705Z,100260.61
2023-05-01T11:46:32.719Z,100258.67
2023-05-01T11:49:04.606Z,100263.05
2023-05-01T11:51:35.475Z,100247.99
2023-05-01T11:54:10.568Z,100236.92
2023-05-01T11:56:42.790Z,100238.79
2023-05-01T11:59:16.104Z,100230.41
2023-05-01T12:01:49.233Z,100227.97
2023-05-01T12:04:31.901Z,100221.17
2023-05-01T12:07:03.579Z,100205.00
2023-05-01T12:09:35.167Z,100199.98
2023-05-01T12:12:07.053Z,100198.30
2023-05-01T12:14:37.871Z,100188.06
2023-05-01T12:17:09.889Z,100185.27
2023-05-01T12:19:49.992Z,100186.25
2023-05-01T12:22:20.656Z,100181.33
2023-05-01T12:24:55.247Z,100180.35
2023-05-01T12:27:26.017Z,100174.07
2023-05-01T12:29:57.423Z,100165.23
2023-05-01T12:32:34.648Z,100147.80
2023-05-01T12:35:15.587Z,100155.46
2023-05-01T12:37:46.939Z,100155.89
2023-05-01T12:40:19.038Z,100149.39
2023-05-01T12:42:55.014Z,100142.20
2023-05-01T12:45:26.167Z,100135.54
2023-05-01T12:47:57.161Z,100140.41
2023-05-01T12:50:28.012Z,100136.20
2023-05-01T12:53:02.820Z,100129.58
2023-05-01T12:55:36.048Z,100128.41
2023-05-01T12:58:06.688Z,100132.84
2023-05-01T13:00:47.142Z,100119.59
2023-05-01T13:03:23.703Z,100118.04
2023-05-01T13:05:57.515Z,100113.64
2023-05-01T13:08:33.436Z,100112.64
2023-05-01T13:11:13.187Z,100114.66
2023-05-01T13:13:44.860Z,100110.84
2023-05-01T13:16:17.088Z,100104.80
2023-05-01T13:18:49.839Z,100111.30
2023-05-01T13:21:23.370Z,100109.50
2023-05-01T13:23:57.616Z,100105.54
2023-05-01T13:26:32.940Z,100101.86
2023-05-01T13:29:05.761Z,100105.20
2023-05-01T13:31:37.555Z,100105.41
2023-05-01T13:34:08.373Z,100100.59
2023-05-01T13:36:41.176Z,100092.67
2023-05-01T13:39:12.329Z,100095.35
2023-05-01T13:41:45.188Z,100097.25
2023-05-01T13:44:17.147Z,100104.32
2023-05-01T13:46:49.445Z,100099.75
2023-05-01T13:49:23.933Z,100091.16
2023-05-01T13:51:55.610Z,100090.35
2023-05-01T13:54:27.231Z,100079.08
2023-05-01T13:56:58.278Z,100086.32
2023-05-01T13:59:38.265Z,100079.52
2023-05-01T14:02:21.823Z,100077.36
2023-05-01T14:04:53.109Z,100075.23
2023-05-01T14:07:25.766Z,100075.88
2023-05-01T14:09:59.537Z,100069.96
2023-05-01T14:12:31.861Z,100067.43
2023-05-01T14:15:03.256Z,100066.02
2023-05-01T14:17:37.561Z,100055.42
2023-05-01T14:20:10.388Z,100053.53
2023-05-01T14:22:45.979Z,100051.02
2023-05-01T14:25:28.472Z,100044.90
2023-05-01T14:28:01.059Z,100039.31
2023-05-01T14:30:34.193Z,100040.03
2023-05-01T14:33:07.378Z,100034.18
2023-05-01T14:35:38.787Z,100029.52
2023-05-01T14:38:13.793Z,100026.84
2023-05-01T14:40:45.458Z,100019.05
2023-05-01T14:43:20.444Z,100019.65
2023-05-01T14:45:51.291Z,100022.73
2023-05-01T14:48:25.457Z,100017.33
2023-05-01T14:50:58.110Z,100014.30
2023-05-01T14:53:32.738Z,100013.73
2023-05-01T14:56:03.454Z,100014.28
2023-05-01T14:58:34.175Z,100008.66
2023-05-01T15:01:05.186Z,100015.77
2023-05-01T15:03:40.922Z,100015.73
2023-05-01T15:06:12.190Z,100014.77
2023-05-01T15:08:43.408Z,100021.90
2023-05-01T15:11:18.022Z,100017.21
2023-05-01T15:13:50.573Z,100018.30
2023-05-01T15:16:21.362Z,100018.64
2023-05-01T15:18:52.195Z,100017.20
2023-05-01T15:21:22.898Z,100016.54
2023-05-01T15:23:53.632Z,100013.28
2023-05-01T15:26:24.262Z,100012.59
2023-05-01T15:28:55.287Z,100014.30
2023-05-01T15:31:26.046Z,100013.27
2023-05-01T15:33:57.475Z,100013.90
2023-05-01T15:36:28.085Z,100013.02
2023-05-01T15:38:58.757Z,100007.41
2023-05-01T15:41:29.564Z,100003.06
2023-05-01T15:44:00.348Z,100002.27
2023-05-01T15:46:31.513Z,99999.17
2023-05-01T15:49:02.423Z,99997.09
2023-05-01T15:51:34.423Z,99999.96
2023-05-01T15:54:05.802Z,99999.61
2023-05-01T15:56:38.770Z,99995.86
2023-05-01T15:59:09.932Z,99993.27
2023-05-01T16:01:41.028Z,99992.04
2023-05-01T16:04:12.083Z,99991.32
2023-05-01T16:06:43.152Z,99990.52
2023-05-01T16:09:14.984Z,99987.05
2023-05-01T16:11:45.950Z,99986.83
2023-05-01T16:14:18.688Z,99981.05
2023-05-01T16:16:49.405Z,99979.31
2023-05-01T16:19:20.680Z,99985.17
2023-05-01T16:21:51.345Z,99986.63
2023-05-01T16:24:22.630Z,99985.33
2023-05-01T16:26:53.225Z,99984.75
2023-05-01T16:29:23.989Z,99983.42
2023-05-01T16:31:54.723Z,99979.28
2023-05-01T16:34:28.066Z,99980.17
2023-05-01T16:36:58.722Z,99981.23
2023-05-01T16:39:29.360Z,99985.50
2023-05-01T16:41:59.984Z,99979.14
2023-05-01T16:44:30.676Z,99980.27
2023-05-01T16:47:04.064Z,99981.13
2023-05-01T16:49:34.978Z,99981.51
2023-05-01T16:52:05.878Z,99979.33
2023-05-01T16:54:36.679Z,99978.16
2023-05-01T16:57:07.467Z,99984.48
2023-05-01T16:59:38.570Z,99983.37
2023-05-01T17:02:09.511Z,99981.75
2023-05-01T17:04:40.399Z,99977.92
2023-05-01T17:07:11.179Z,99982.29
2023-05-01T17:09:42.026Z,99978.73
2023-05-01T17:12:12.694Z,99980.38
2023-05-01T17:14:43.574Z,99981.52
2023-05-01T17:17:14.455Z,99977.71
2023-05-01T17:19:45.116Z,99981.68
2023-05-01T17:22:16.064Z,99982.28
2023-05-01T17:24:47.359Z,99981.70
2023-05-01T17:27:18.056Z,99982.98
2023-05-01T17:29:49.038Z,99979.29
2023-05-01T17:32:35.790Z,99986.28
2023-05-01T17:35:08.916Z,99985.73
2023-05-01T17:37:40.602Z,99985.27
2023-05-01T17:40:13.192Z,99981.98
2023-05-01T17:42:44.538Z,99982.90
2023-05-01T17:45:15.605Z,99982.20
2023-05-01T17:47:46.797Z,99982.54
2023-05-01T17:50:17.588Z,99982.80
2023-05-01T17:52:48.381Z,99980.38
2023-05-01T17:55:19.054Z,99977.71
2023-05-01T17:57:49.819Z,99979.98
2023-05-01T18:00:22.409Z,99981.25
2023-05-01T18:02:53.283Z,99981.13
2023-05-01T18:05:24.198Z,99979.94
2023-05-01T18:07:54.881Z,99982.58
2023-05-01T18:10:30.161Z,99981.13
2023-05-01T18:13:00.794Z,99984.77
2023-05-01T18:15:31.515Z,99981.72
2023-05-01T18:18:02.647Z,99983.20
2023-05-01T18:20:33.729Z,99985.83
2023-05-01T18:23:04.404Z,99986.23
2023-05-01T18:25:35.698Z,99987.21
2023-05-01T18:28:06.553Z,99985.45
2023-05-01T18:30:37.575Z,99989.04
2023-05-01T18:33:08.510Z,99987.66
2023-05-01T18:35:42.369Z,99991.09
2023-05-01T18:38:13.280Z,99990.27
2023-05-01T18:40:43.939Z,99997.03
2023-05-01T18:43:14.522Z,99992.81
2023-05-01T18:45:45.143Z,99995.80
2023-05-01T18:48:16.014Z,99995.12
2023-05-01T18:51:00.769Z,99995.30
2023-05-01T18:53:37.846Z,99996.94
2023-05-01T18:56:09.530Z,99997.09
2023-05-01T18:58:41.274Z,99995.73
2023-05-01T19:01:11.882Z,99996.56
2023-05-01T19:03:42.660Z,99999.53
2023-05-01T19:06:13.246Z,100004.20
2023-05-01T19:08:44.116Z,100002.23
2023-05-01T19:11:14.715Z,100005.37
2023-05-01T19:13:45.351Z,100006.54
2023-05-01T19:16:16.108Z,100004.46
2023-05-01T19:18:48.496Z,100005.30
2023-05-01T19:21:19.573Z,100008.09
2023-05-01T19:23:50.225Z,100011.38
2023-05-01T19:26:21.008Z,100011.73
2023-05-01T19:28:51.711Z,100013.73
2023-05-01T19:31:22.477Z,100011.60
2023-05-01T19:33:55.078Z,100007.73
2023-05-01T19:36:26.733Z,100009.77
2023-05-01T19:38:57.512Z,100006.04
2023-05-01T19:41:28.077Z,100008.42
2023-05-01T19:43:58.794Z,100007.10
2023-05-01T19:46:29.519Z,100011.11
2023-05-01T19:49:00.479Z,100010.90
2023-05-01T19:51:31.464Z,100011.70
2023-05-01T19:54:04.457Z,100011.77
2023-05-01T19:56:35.272Z,100016.30
2023-05-01T19:59:05.873Z,100015.10
2023-05-01T20:01:38.823Z,100014.84
2023-05-01T20:04:09.710Z,100015.09
2023-05-01T20:06:40.489Z,100021.59
2023-05-01T20:09:11.109Z,100020.10
2023-05-01T20:11:41.830Z,100023.51
2023-05-01T20:14:12.557Z,100024.36
2023-05-01T20:16:43.496Z,100026.55
2023-05-01T20:19:16.381Z,100027.39
2023-05-01T20:21:47.254Z,100035.15
2023-05-01T20:24:17.854Z,100037.54
2023-05-01T20:26:50.215Z,100042.80
2023-05-01T20:29:19.338Z,100044.09
2023-05-01T20:31:51.749Z,100047.66
2023-05-01T20:34:23.068Z,100046.27
2023-05-01T20:36:53.697Z,100050.86
2023-05-01T20:39:24.279Z,100053.21
2023-05-01T20:41:55.650Z,100059.30
2023-05-01T20:44:26.513Z,100065.67
2023-05-01T20:46:57.324Z,100072.39
2023-05-01T20:49:28.655Z,100082.09
2023-05-01T20:51:59.318Z,100088.44
2023-05-01T20:54:32.320Z,100102.73
2023-05-01T20:57:03.944Z,100109.98
2023-05-01T20:59:35.505Z,100110.27
2023-05-01T21:02:08.050Z,100105.27
2023-05-01T21:04:39.213Z,100106.19
2023-05-01T21:07:10.021Z,100109.73
2023-05-01T21:09:46.153Z,100112.40
2023-05-01T21:12:17.138Z,100113.18
2023-05-01T21:14:47.940Z,100116.11
2023-05-01T21:17:20.828Z,100125.20
2023-05-01T21:19:51.551Z,100125.80
2023-05-01T21:22:24.104Z,100134.89
2023-05-01T21:24:56.685Z,100131.08
2023-05-01T21:27:28.284Z,100143.05
2023-05-01T21:30:00.993Z,100140.60
2023-05-01T21:32:33.999Z,100130.91
2023-05-01T21:35:05.489Z,100132.83
2023-05-01T21:37:36.613Z,100135.42
2023-05-01T21:40:11.321Z,100144.28
2023-05-01T21:42:42.187Z,100141.19
2023-05-01T21:45:15.829Z,100140.74
2023-05-01T21:47:48.903Z,100133.52
2023-05-01T21:50:21.259Z,100134.84
2023-05-01T21:52:51.165Z,100135.52
2023-05-01T21:55:23.825Z,100136.94
2023-05-01T21:57:54.896Z,100135.62
2023-05-01T22:00:25.810Z,100136.04
2023-05-01T22:02:56.900Z,100139.33
2023-05-01T22:05:31.062Z,100141.04
2023-05-01T22:08:01.858Z,100142.19
2023-05-01T22:10:32.784Z,100142.64
2023-05-01T22:13:06.432Z,100147.29
2023-05-01T22:15:37.271Z,100152.41
2023-05-01T22:18:08.542Z,100155.04
2023-05-01T22:20:39.195Z,100156.90
2023-05-01T22:23:09.835Z,100157.33
2023-05-01T22:25:40.490Z,100154.48
2023-05-01T22:28:11.270Z,100153.25
2023-05-01T22:30:44.294Z,100155.33
2023-05-01T22:33:14.952Z,100156.79
2023-05-01T22:35:45.632Z,100154.25
2023-05-01T22:38:16.298Z,100156.23
2023-05-01T22:40:46.924Z,100159.82
2023-05-01T22:43:17.591Z,100159.24
2023-05-01T22:45:48.233Z,100159.23
2023-05-01T22:48:19.102Z,100164.98
2023-05-01T22:50:49.971Z,100163.17
2023-05-01T22:53:20.631Z,100164.24
2023-05-01T22:55:51.466Z,100160.09
2023-05-01T22:58:22.310Z,100158.33
2023-05-01T23:00:53.113Z,100161.15
2023-05-01T23:03:23.887Z,100158.11
2023-05-01T23:05:54.819Z,100159.64
2023-05-01T23:08:25.753Z,100167.55
2023-05-01T23:10:56.711Z,100172.36
2023-05-01T23:13:28.141Z,100180.97
2023-05-01T23:15:59.759Z,100188.45
2023-05-01T23:18:33.872Z,100188.70
2023-05-01T23:21:05.011Z,100186.07
2023-05-01T23:23:38.423Z,100187.93
2023-05-01T23:26:09.141Z,100188.18
2023-05-01T23:28:43.360Z,100192.02
2023-05-01T23:31:18.921Z,100197.54
2023-05-01T23:33:49.516Z,100194.50
2023-05-01T23:36:21.256Z,100190.02
2023-05-01T23:38:51.918Z,100186.95
2023-05-01T23:41:22.870Z,100185.72
2023-05-01T23:43:53.495Z,100183.34
2023-05-01T23:46:24.492Z,100180.30
2023-05-01T23:48:56.605Z,100183.11
2023-05-01T23:51:27.842Z,100181.62
2023-05-01T23:53:59.076Z,100183.20
2023-05-01T23:56:29.893Z,100176.06
2023-05-01T23:59:00.700Z,100176.38
